Time;durP1;ratioP1;P1;durP2;ratioP2;P2;SDS_P1;SDS_P2;PMS_P1;PMS_P2;Temp;Humidity;BMP_temperature;BMP_pressure;BME280_temperature;BME280_humidity;BME280_pressure;Samples;Min_cycle;Max_cycle;Signal;HPM_P1;HPM_P2
2023/06/02 02:01:52;;;;;;;11.73;4.40;;;;;;;;;;4500801;28;20213;-76
2023/06/02 02:04:18;;;;;;;6.57;2.95;;;;;;;;;;4294983;33;20049;-76
2023/06/02 02:06:45;;;;;;;6.72;2.75;;;;;;;;;;4272431;33;20046;-75
2023/06/02 02:09:11;;;;;;;13.90;3.45;;;;;;;;;;4283488;33;20470;-76
2023/06/02 02:11:36;;;;;;;6.12;3.50;;;;;;;;;;4295543;33;20163;-76
2023/06/02 02:14:04;;;;;;;14.43;4.50;;;;;;;;;;4295900;33;20059;-76
2023/06/02 02:16:31;;;;;;;11.27;3.12;;;;;;;;;;4294296;33;20041;-75
2023/06/02 02:18:58;;;;;;;6.18;3.28;;;;;;;;;;4295296;33;20092;-76
2023/06/02 02:21:25;;;;;;;11.93;3.60;;;;;;;;;;4295978;33;20032;-75
2023/06/02 02:23:52;;;;;;;17.45;3.60;;;;;;;;;;4294167;33;20169;-75
2023/06/02 02:26:18;;;;;;;13.48;3.97;;;;;;;;;;4294838;33;20026;-74
2023/06/02 02:28:45;;;;;;;7.15;3.17;;;;;;;;;;4294170;33;20082;-76
2023/06/02 02:31:12;;;;;;;9.77;3.25;;;;;;;;;;4295800;33;20045;-75
2023/06/02 02:33:38;;;;;;;10.00;3.15;;;;;;;;;;4295280;33;20060;-76
2023/06/02 02:36:04;;;;;;;8.32;3.03;;;;;;;;;;4284119;33;20063;-76
2023/06/02 02:38:31;;;;;;;20.20;3.72;;;;;;;;;;4292039;33;20071;-73
2023/06/02 02:40:57;;;;;;;5.78;2.78;;;;;;;;;;4295403;33;20045;-75
2023/06/02 02:43:24;;;;;;;11.75;3.55;;;;;;;;;;4297094;33;20049;-76
2023/06/02 02:45:58;;;;;;;11.18;3.83;;;;;;;;;;4297845;33;20053;-75
2023/06/02 02:48:24;;;;;;;19.48;3.40;;;;;;;;;;4297922;33;20387;-76
2023/06/02 02:50:50;;;;;;;10.18;3.60;;;;;;;;;;4295602;33;20045;-76
2023/06/02 02:53:17;;;;;;;15.25;4.25;;;;;;;;;;4295253;33;20104;-76
2023/06/02 02:55:44;;;;;;;9.88;3.90;;;;;;;;;;4294364;33;20041;-77
2023/06/02 02:58:11;;;;;;;16.52;5.43;;;;;;;;;;4294173;33;20049;-78
2023/06/02 03:00:37;;;;;;;13.43;3.62;;;;;;;;;;4293041;33;20080;-74
2023/06/02 03:03:05;;;;;;;11.27;3.37;;;;;;;;;;4295157;33;21052;-76
2023/06/02 03:08:07;;;;;;;10.90;3.72;;;;;;;;;;4295163;33;20483;-76
2023/06/02 03:10:33;;;;;;;10.88;3.53;;;;;;;;;;4293495;33;20049;-75
2023/06/02 03:12:59;;;;;;;14.30;4.78;;;;;;;;;;4294924;33;20550;-75
2023/06/02 03:15:27;;;;;;;8.15;3.40;;;;;;;;;;4294765;33;20052;-75
2023/06/02 03:17:55;;;;;;;7.93;3.65;;;;;;;;;;4294750;33;20071;-76
2023/06/02 03:20:21;;;;;;;8.60;3.85;;;;;;;;;;4279190;33;20059;-77
2023/06/02 03:22:48;;;;;;;10.88;3.87;;;;;;;;;;4277953;33;20117;-78
2023/06/02 03:25:14;;;;;;;12.27;3.70;;;;;;;;;;4267465;33;20063;-77
2023/06/02 03:27:41;;;;;;;16.95;5.93;;;;;;;;;;4265866;33;20041;-76
2023/06/02 03:30:07;;;;;;;11.45;4.68;;;;;;;;;;4261833;33;20147;-77
2023/06/02 03:32:34;;;;;;;9.57;3.80;;;;;;;;;;4261804;33;20053;-77
2023/06/02 03:35:00;;;;;;;12.88;3.50;;;;;;;;;;4253842;33;20050;-77
2023/06/02 03:37:26;;;;;;;8.57;3.87;;;;;;;;;;4258020;33;20524;-78
2023/06/02 03:39:53;;;;;;;9.32;3.42;;;;;;;;;;4250494;33;20038;-77
2023/06/02 03:42:19;;;;;;;12.70;3.80;;;;;;;;;;4261897;33;20038;-78
2023/06/02 03:44:45;;;;;;;6.93;3.17;;;;;;;;;;4257970;33;20034;-75
2023/06/02 03:47:12;;;;;;;15.35;3.60;;;;;;;;;;4252882;33;20050;-77
2023/06/02 03:49:38;;;;;;;22.00;4.50;;;;;;;;;;4263630;33;20058;-77
2023/06/02 03:52:04;;;;;;;13.05;4.57;;;;;;;;;;4259503;33;20084;-78
2023/06/02 03:54:31;;;;;;;8.55;3.90;;;;;;;;;;4265424;33;20084;-77
2023/06/02 03:56:57;;;;;;;20.20;3.72;;;;;;;;;;4262405;33;20555;-76
2023/06/02 03:59:23;;;;;;;14.15;4.20;;;;;;;;;;4252094;33;20030;-78
2023/06/02 04:01:50;;;;;;;11.18;4.57;;;;;;;;;;4265114;33;20057;-76
2023/06/02 04:04:17;;;;;;;12.13;3.83;;;;;;;;;;4267803;33;20109;-75
2023/06/02 04:06:43;;;;;;;11.10;3.97;;;;;;;;;;4258096;33;20514;-75
2023/06/02 04:09:10;;;;;;;12.52;4.30;;;;;;;;;;4263497;33;20045;-74
2023/06/02 04:11:36;;;;;;;9.80;3.55;;;;;;;;;;4265302;33;20848;-76
2023/06/02 04:14:03;;;;;;;10.13;4.93;;;;;;;;;;4265232;33;20042;-77
2023/06/02 04:16:29;;;;;;;9.80;3.70;;;;;;;;;;4255304;33;20058;-79
2023/06/02 04:18:55;;;;;;;15.73;4.43;;;;;;;;;;4253406;33;20124;-77
2023/06/02 04:21:22;;;;;;;9.73;3.60;;;;;;;;;;4264986;33;20041;-75
2023/06/02 04:23:48;;;;;;;9.48;4.18;;;;;;;;;;4292548;33;20049;-76
2023/06/02 04:26:15;;;;;;;5.82;3.83;;;;;;;;;;4295182;33;20067;-77
2023/06/02 04:28:41;;;;;;;17.90;4.43;;;;;;;;;;4295941;33;20040;-76
2023/06/02 04:31:11;;;;;;;5.65;2.85;;;;;;;;;;4279587;33;20132;-77
2023/06/02 04:33:37;;;;;;;9.43;3.50;;;;;;;;;;4276498;33;20091;-77
2023/06/02 04:36:05;;;;;;;5.95;3.45;;;;;;;;;;4262761;33;20113;-77
2023/06/02 04:38:31;;;;;;;10.90;4.37;;;;;;;;;;4270974;33;20063;-77
2023/06/02 04:41:01;;;;;;;12.25;3.85;;;;;;;;;;4275197;33;20083;-78
2023/06/02 04:43:28;;;;;;;10.75;4.10;;;;;;;;;;4276379;33;20373;-75
2023/06/02 04:45:56;;;;;;;9.63;4.03;;;;;;;;;;4265883;33;20918;-77
2023/06/02 04:48:24;;;;;;;17.62;3.62;;;;;;;;;;4264863;33;20576;-78
2023/06/02 04:50:50;;;;;;;10.75;4.05;;;;;;;;;;4264092;33;20061;-77
2023/06/02 04:53:16;;;;;;;9.38;4.62;;;;;;;;;;4263814;33;20083;-77
2023/06/02 04:55:44;;;;;;;15.98;4.60;;;;;;;;;;4261137;33;20415;-77
2023/06/02 04:58:10;;;;;;;12.93;4.50;;;;;;;;;;4263947;33;20071;-76
2023/06/02 05:00:37;;;;;;;12.65;3.62;;;;;;;;;;4264874;33;20092;-77
2023/06/02 05:03:03;;;;;;;9.52;4.25;;;;;;;;;;4262758;33;20457;-76
2023/06/02 05:05:29;;;;;;;8.35;4.30;;;;;;;;;;4264321;33;20053;-77
2023/06/02 05:07:56;;;;;;;12.37;3.90;;;;;;;;;;4262994;33;20072;-76
2023/06/02 05:10:22;;;;;;;17.12;3.87;;;;;;;;;;4265116;33;20104;-76
2023/06/02 05:12:49;;;;;;;13.20;4.05;;;;;;;;;;4265047;33;20075;-77
2023/06/02 05:17:49;;;;;;;7.03;3.60;;;;;;;;;;4262260;33;20064;-78
2023/06/02 05:20:16;;;;;;;9.30;3.55;;;;;;;;;;4263941;33;20087;-76
2023/06/02 05:22:42;;;;;;;10.43;3.95;;;;;;;;;;4261312;33;20042;-76
2023/06/02 05:25:09;;;;;;;16.48;4.00;;;;;;;;;;4264065;33;20075;-76
2023/06/02 05:27:36;;;;;;;10.45;4.20;;;;;;;;;;4252558;33;20105;-75
2023/06/02 05:30:03;;;;;;;6.72;4.00;;;;;;;;;;4247419;33;20068;-77
2023/06/02 05:32:35;;;;;;;11.30;4.70;;;;;;;;;;4249496;33;20042;-77
2023/06/02 05:35:02;;;;;;;11.55;4.95;;;;;;;;;;4262307;33;20061;-75
2023/06/02 05:37:28;;;;;;;14.93;4.00;;;;;;;;;;4251654;33;20399;-76
2023/06/02 05:39:55;;;;;;;11.35;4.22;;;;;;;;;;4261402;33;20036;-75
2023/06/02 05:42:24;;;;;;;7.85;4.20;;;;;;;;;;4267009;33;20081;-76
2023/06/02 05:44:51;;;;;;;19.33;4.22;;;;;;;;;;4252769;33;20050;-76
2023/06/02 05:47:26;;;;;;;16.30;4.15;;;;;;;;;;4217014;34;20378;-77
2023/06/02 05:49:52;;;;;;;13.43;4.18;;;;;;;;;;4223428;33;20445;-78
2023/06/02 05:52:18;;;;;;;14.73;3.70;;;;;;;;;;4231139;33;20047;-76
2023/06/02 05:54:44;;;;;;;10.55;3.75;;;;;;;;;;4224179;34;20054;-76
2023/06/02 05:57:11;;;;;;;12.98;4.75;;;;;;;;;;4214133;34;20085;-80
2023/06/02 05:59:39;;;;;;;11.12;4.22;;;;;;;;;;4206636;33;20074;-75
2023/06/02 06:02:05;;;;;;;11.88;4.05;;;;;;;;;;4232696;33;20072;-77
2023/06/02 06:04:32;;;;;;;12.63;4.07;;;;;;;;;;4238428;33;20062;-78
2023/06/02 06:06:59;;;;;;;14.87;5.45;;;;;;;;;;4229993;33;20050;-77
2023/06/02 06:09:25;;;;;;;9.88;4.90;;;;;;;;;;4216650;34;20090;-77
2023/06/02 06:11:51;;;;;;;8.93;3.85;;;;;;;;;;4225408;33;20525;-76
2023/06/02 06:14:18;;;;;;;9.40;3.78;;;;;;;;;;4226761;33;20513;-79
2023/06/02 06:16:44;;;;;;;12.80;4.12;;;;;;;;;;4217248;34;20069;-83
2023/06/02 06:19:12;;;;;;;8.55;3.70;;;;;;;;;;4195562;34;20061;-80
2023/06/02 06:21:38;;;;;;;9.15;4.22;;;;;;;;;;4195413;34;20087;-78
2023/06/02 06:24:07;;;;;;;9.10;4.55;;;;;;;;;;4191123;34;20061;-80
2023/06/02 06:26:34;;;;;;;8.63;4.10;;;;;;;;;;4172761;34;20444;-79
2023/06/02 06:29:03;;;;;;;8.80;3.95;;;;;;;;;;4192163;34;20047;-77
2023/06/02 06:31:29;;;;;;;12.60;4.45;;;;;;;;;;4195978;34;20490;-77
2023/06/02 06:33:56;;;;;;;10.43;4.53;;;;;;;;;;4194233;34;20048;-76
2023/06/02 06:36:22;;;;;;;7.03;3.95;;;;;;;;;;4223200;33;20100;-76
2023/06/02 06:38:48;;;;;;;6.85;3.97;;;;;;;;;;4235098;33;20448;-77
2023/06/02 06:41:22;;;;;;;11.05;4.07;;;;;;;;;;4238087;33;20506;-76
2023/06/02 06:43:49;;;;;;;17.55;4.25;;;;;;;;;;4237020;33;20050;-74
2023/06/02 06:46:16;;;;;;;13.35;4.60;;;;;;;;;;4238404;33;20050;-76
2023/06/02 06:48:42;;;;;;;7.82;3.47;;;;;;;;;;4239201;33;20066;-76
2023/06/02 06:51:08;;;;;;;16.00;5.03;;;;;;;;;;4253538;33;20053;-76
2023/06/02 06:53:35;;;;;;;15.35;4.70;;;;;;;;;;4258567;33;20071;-76
2023/06/02 06:56:02;;;;;;;8.13;3.95;;;;;;;;;;4258912;33;20038;-75
2023/06/02 06:58:29;;;;;;;15.70;4.30;;;;;;;;;;4250831;33;20085;-76
2023/06/02 07:00:55;;;;;;;7.55;4.82;;;;;;;;;;4287841;33;20056;-77
2023/06/02 07:03:21;;;;;;;8.50;3.30;;;;;;;;;;4283465;33;20045;-76
2023/06/02 07:05:47;;;;;;;3.70;2.62;;;;;;;;;;4278783;33;20092;-77
2023/06/02 07:08:14;;;;;;;8.93;3.45;;;;;;;;;;4278036;33;20057;-79
2023/06/02 07:10:40;;;;;;;4.97;3.17;;;;;;;;;;4282372;33;20067;-78
2023/06/02 07:13:06;;;;;;;10.07;2.90;;;;;;;;;;4283362;33;20105;-77
2023/06/02 07:15:33;;;;;;;5.30;3.35;;;;;;;;;;4284742;33;20815;-78
2023/06/02 07:17:59;;;;;;;12.00;2.90;;;;;;;;;;4283438;33;20113;-76
2023/06/02 07:20:25;;;;;;;10.40;3.20;;;;;;;;;;4277442;33;20034;-77
2023/06/02 07:22:51;;;;;;;3.60;3.08;;;;;;;;;;4283031;33;20080;-77
2023/06/02 07:25:17;;;;;;;12.50;4.25;;;;;;;;;;4280416;33;20119;-78
2023/06/02 07:27:44;;;;;;;6.68;4.15;;;;;;;;;;4284258;33;20079;-78
2023/06/02 07:30:10;;;;;;;11.98;4.15;;;;;;;;;;4281885;33;20041;-74
2023/06/02 07:32:42;;;;;;;9.35;4.20;;;;;;;;;;4280161;33;20772;-79
2023/06/02 07:35:08;;;;;;;8.32;3.87;;;;;;;;;;4286374;33;20109;-79
2023/06/02 07:37:35;;;;;;;11.60;4.10;;;;;;;;;;4270142;33;20046;-79
2023/06/02 07:40:01;;;;;;;10.45;5.50;;;;;;;;;;4273907;33;20446;-79
2023/06/02 07:42:27;;;;;;;5.25;4.05;;;;;;;;;;4262569;33;20081;-78
2023/06/02 07:44:55;;;;;;;9.70;4.20;;;;;;;;;;4264439;33;20107;-78
2023/06/02 07:47:27;;;;;;;5.65;3.40;;;;;;;;;;4265293;33;20110;-79
2023/06/02 07:49:54;;;;;;;12.20;5.57;;;;;;;;;;4271812;33;20422;-77
2023/06/02 07:52:20;;;;;;;8.13;4.20;;;;;;;;;;4268118;33;20045;-74
2023/06/02 07:54:46;;;;;;;11.90;3.65;;;;;;;;;;4266652;33;20184;-78
2023/06/02 07:57:12;;;;;;;13.18;3.62;;;;;;;;;;4258823;33;20047;-79
2023/06/02 07:59:38;;;;;;;11.07;3.10;;;;;;;;;;4262694;33;20045;-77
2023/06/02 08:02:05;;;;;;;4.80;2.60;;;;;;;;;;4257299;33;20065;-78
2023/06/02 08:04:32;;;;;;;6.95;2.67;;;;;;;;;;4266813;33;20038;-76
2023/06/02 08:06:58;;;;;;;5.07;2.50;;;;;;;;;;4272738;33;20082;-78
2023/06/02 08:09:24;;;;;;;9.20;2.20;;;;;;;;;;4261289;33;20033;-79
2023/06/02 08:11:51;;;;;;;2.97;2.28;;;;;;;;;;4239931;33;20045;-79
2023/06/02 08:14:17;;;;;;;6.53;2.25;;;;;;;;;;4250981;33;20507;-76
2023/06/02 08:16:43;;;;;;;5.72;1.45;;;;;;;;;;4262198;33;20063;-78
2023/06/02 08:19:10;;;;;;;4.97;1.35;;;;;;;;;;4253585;33;20054;-77
2023/06/02 08:21:38;;;;;;;4.97;2.03;;;;;;;;;;4259218;33;20057;-77
2023/06/02 08:24:10;;;;;;;7.93;2.22;;;;;;;;;;4259848;33;20030;-78
2023/06/02 08:26:39;;;;;;;3.62;1.62;;;;;;;;;;4262947;33;20657;-76
2023/06/02 08:29:08;;;;;;;1.55;1.30;;;;;;;;;;4268647;33;20079;-78
2023/06/02 08:31:35;;;;;;;3.47;1.30;;;;;;;;;;4265321;33;20062;-76
2023/06/02 08:34:03;;;;;;;1.92;1.52;;;;;;;;;;4271156;33;20045;-79
2023/06/02 08:36:29;;;;;;;7.43;2.15;;;;;;;;;;4264493;33;20071;-75
2023/06/02 08:38:55;;;;;;;3.15;1.70;;;;;;;;;;4263687;33;20046;-78
2023/06/02 08:41:23;;;;;;;5.53;1.92;;;;;;;;;;4238027;33;20926;-76
2023/06/02 08:43:51;;;;;;;8.43;1.55;;;;;;;;;;4228671;33;20057;-74
2023/06/02 08:46:17;;;;;;;5.50;1.87;;;;;;;;;;4239313;33;20636;-75
2023/06/02 08:48:45;;;;;;;8.68;2.25;;;;;;;;;;4236961;33;20080;-76
2023/06/02 08:51:15;;;;;;;7.00;2.83;;;;;;;;;;4217296;33;20430;-81
2023/06/02 08:53:41;;;;;;;1.58;1.17;;;;;;;;;;4223022;33;20034;-79
2023/06/02 08:56:08;;;;;;;10.00;1.83;;;;;;;;;;4225055;33;20218;-79
2023/06/02 08:58:34;;;;;;;4.90;1.60;;;;;;;;;;4221669;34;20043;-77
2023/06/02 09:01:02;;;;;;;5.60;2.28;;;;;;;;;;4218617;34;20069;-77
2023/06/02 09:03:28;;;;;;;4.93;2.37;;;;;;;;;;4217972;34;20063;-78
2023/06/02 09:06:17;;;;;;;3.58;2.10;;;;;;;;;;4215572;34;20050;-78
2023/06/02 09:08:59;;;;;;;13.18;2.65;;;;;;;;;;4215331;34;20047;-78
2023/06/02 09:11:26;;;;;;;5.03;2.92;;;;;;;;;;4207782;34;20062;-79
2023/06/02 09:13:53;;;;;;;2.00;1.90;;;;;;;;;;4209910;34;20381;-81
2023/06/02 09:16:22;;;;;;;8.93;2.42;;;;;;;;;;4210241;34;20059;-81
2023/06/02 09:18:56;;;;;;;13.55;3.65;;;;;;;;;;4207399;34;20617;-79
2023/06/02 09:21:27;;;;;;;5.57;2.60;;;;;;;;;;4210993;34;20106;-80
2023/06/02 09:23:57;;;;;;;6.05;2.70;;;;;;;;;;4209647;34;20065;-81
2023/06/02 09:26:25;;;;;;;7.10;2.60;;;;;;;;;;4209193;34;20170;-78
2023/06/02 09:29:12;;;;;;;8.65;2.67;;;;;;;;;;4209673;34;20070;-80
2023/06/02 09:31:46;;;;;;;8.25;3.00;;;;;;;;;;4209200;34;20401;-80
2023/06/02 09:34:13;;;;;;;9.30;3.30;;;;;;;;;;4208023;34;20043;-81
2023/06/02 09:36:39;;;;;;;6.12;2.55;;;;;;;;;;4195010;34;20448;-83
2023/06/02 09:39:07;;;;;;;4.50;2.85;;;;;;;;;;4196064;34;20043;-83
2023/06/02 09:41:33;;;;;;;7.18;3.35;;;;;;;;;;4198297;34;20442;-83
2023/06/02 09:44:00;;;;;;;8.68;2.80;;;;;;;;;;4224478;33;20039;-78
2023/06/02 09:46:31;;;;;;;13.60;2.97;;;;;;;;;;4252653;33;20061;-80
2023/06/02 09:48:59;;;;;;;7.97;2.55;;;;;;;;;;4253081;33;20074;-79
2023/06/02 09:51:27;;;;;;;7.97;3.55;;;;;;;;;;4246283;33;20441;-78
2023/06/02 09:53:54;;;;;;;8.93;3.67;;;;;;;;;;4238482;33;20084;-78
2023/06/02 09:56:22;;;;;;;6.03;3.05;;;;;;;;;;4236700;33;20101;-85
2023/06/02 09:58:48;;;;;;;8.85;3.10;;;;;;;;;;4236523;33;20055;-82
2023/06/02 10:01:15;;;;;;;9.88;3.08;;;;;;;;;;4237447;33;20055;-84
2023/06/02 10:03:42;;;;;;;13.88;3.53;;;;;;;;;;4236355;33;20068;-82
2023/06/02 10:06:11;;;;;;;14.77;4.87;;;;;;;;;;4234752;33;20558;-77
2023/06/02 10:09:00;;;;;;;8.57;3.70;;;;;;;;;;4248582;33;20043;-79
2023/06/02 10:11:52;;;;;;;9.98;3.65;;;;;;;;;;4250534;33;20440;-78
2023/06/02 10:14:24;;;;;;;8.77;3.75;;;;;;;;;;4246587;33;20129;-79
2023/06/02 10:17:09;;;;;;;10.05;4.18;;;;;;;;;;4252852;33;20046;-79
2023/06/02 10:19:47;;;;;;;7.05;3.30;;;;;;;;;;4249915;33;20068;-78
2023/06/02 10:22:20;;;;;;;4.45;3.47;;;;;;;;;;4254992;33;20050;-79
2023/06/02 10:24:49;;;;;;;9.02;3.53;;;;;;;;;;4265416;33;20034;-79
2023/06/02 10:27:17;;;;;;;16.25;5.85;;;;;;;;;;4262161;33;20037;-80
2023/06/02 10:29:45;;;;;;;10.88;2.97;;;;;;;;;;4267195;33;20869;-78
2023/06/02 10:32:25;;;;;;;24.40;3.87;;;;;;;;;;4268626;33;20045;-77
2023/06/02 10:34:51;;;;;;;12.40;3.55;;;;;;;;;;4249993;33;20178;-75
2023/06/02 10:37:19;;;;;;;12.10;4.55;;;;;;;;;;4251102;33;20111;-80
2023/06/02 10:39:46;;;;;;;9.45;3.30;;;;;;;;;;4250681;33;21486;-78
2023/06/02 10:42:16;;;;;;;6.82;3.22;;;;;;;;;;4251788;33;20042;-81
2023/06/02 10:44:42;;;;;;;8.40;2.92;;;;;;;;;;4251793;33;20102;-79
2023/06/02 10:47:17;;;;;;;12.18;3.75;;;;;;;;;;4248821;33;21196;-79
2023/06/02 10:50:02;;;;;;;5.87;3.20;;;;;;;;;;4252025;33;20056;-82
2023/06/02 10:52:30;;;;;;;6.95;2.87;;;;;;;;;;4252087;33;20725;-80
2023/06/02 10:55:08;;;;;;;5.53;2.60;;;;;;;;;;4252058;33;20238;-76
2023/06/02 10:57:53;;;;;;;8.52;2.25;;;;;;;;;;4255485;33;20067;-82
2023/06/02 11:03:21;;;;;;;6.57;2.53;;;;;;;;;;4217163;33;20343;-77
2023/06/02 11:05:51;;;;;;;4.60;2.70;;;;;;;;;;4222169;33;20093;-81
2023/06/02 11:08:21;;;;;;;6.75;2.20;;;;;;;;;;4212900;34;20031;-81
2023/06/02 11:10:51;;;;;;;5.10;2.20;;;;;;;;;;4219667;33;20265;-80
2023/06/02 11:13:17;;;;;;;6.30;2.25;;;;;;;;;;4232856;33;20042;-80
2023/06/02 11:16:10;;;;;;;3.30;1.92;;;;;;;;;;4229787;33;20054;-80
2023/06/02 11:18:36;;;;;;;7.37;2.53;;;;;;;;;;4204973;34;20077;-81
2023/06/02 11:21:03;;;;;;;3.60;2.15;;;;;;;;;;4208921;34;20047;-78
2023/06/02 11:23:29;;;;;;;2.00;1.77;;;;;;;;;;4210020;34;20035;-79
2023/06/02 11:26:06;;;;;;;6.32;1.83;;;;;;;;;;4216008;34;20262;-82
2023/06/02 11:28:32;;;;;;;5.68;2.45;;;;;;;;;;4212423;34;20055;-81
2023/06/02 11:31:07;;;;;;;3.80;1.65;;;;;;;;;;4216070;34;20051;-81
2023/06/02 11:33:33;;;;;;;4.47;2.25;;;;;;;;;;4210615;34;20456;-80
2023/06/02 11:36:03;;;;;;;3.22;1.95;;;;;;;;;;4208073;34;20576;-79
2023/06/02 11:38:32;;;;;;;5.03;1.77;;;;;;;;;;4230206;33;20047;-79
2023/06/02 11:41:27;;;;;;;4.85;2.40;;;;;;;;;;4225211;33;20103;-84
2023/06/02 11:44:03;;;;;;;3.03;2.08;;;;;;;;;;4174608;34;20930;-83
2023/06/02 11:46:29;;;;;;;2.22;1.65;;;;;;;;;;4175117;34;20093;-81
2023/06/02 11:48:56;;;;;;;8.35;2.47;;;;;;;;;;4173581;34;20047;-79
2023/06/02 11:51:22;;;;;;;3.08;2.62;;;;;;;;;;4177303;34;20099;-82
2023/06/02 11:54:06;;;;;;;8.20;1.95;;;;;;;;;;4173783;34;20066;-82
2023/06/02 11:56:33;;;;;;;6.28;2.22;;;;;;;;;;4174339;34;20113;-82
2023/06/02 11:58:59;;;;;;;18.23;2.62;;;;;;;;;;4176800;34;20048;-82
2023/06/02 12:01:30;;;;;;;12.15;2.58;;;;;;;;;;4181890;34;20059;-81
2023/06/02 12:04:04;;;;;;;6.62;2.60;;;;;;;;;;4181009;34;20081;-82
2023/06/02 12:06:31;;;;;;;3.47;1.95;;;;;;;;;;4180360;34;20054;-83
2023/06/02 12:09:13;;;;;;;14.00;2.20;;;;;;;;;;4179354;34;20051;-81
2023/06/02 12:11:39;;;;;;;4.07;1.62;;;;;;;;;;4182243;34;20099;-80
2023/06/02 12:14:06;;;;;;;3.85;1.50;;;;;;;;;;4173921;34;20048;-81
2023/06/02 12:16:34;;;;;;;6.03;1.45;;;;;;;;;;4160092;34;20070;-78
2023/06/02 12:19:17;;;;;;;8.15;2.10;;;;;;;;;;4159299;34;20070;-83
2023/06/02 12:21:45;;;;;;;7.55;2.00;;;;;;;;;;4214438;33;20405;-83
2023/06/02 12:24:26;;;;;;;5.50;1.45;;;;;;;;;;4215579;34;20209;-81
2023/06/02 12:26:53;;;;;;;1.67;1.10;;;;;;;;;;4214341;34;20124;-82
2023/06/02 12:29:19;;;;;;;8.50;2.83;;;;;;;;;;4214438;34;20548;-82
2023/06/02 12:31:45;;;;;;;5.12;1.85;;;;;;;;;;4219870;34;20073;-79
2023/06/02 12:34:11;;;;;;;7.85;2.92;;;;;;;;;;4217787;34;20039;-84
2023/06/02 12:36:38;;;;;;;3.40;1.58;;;;;;;;;;4224705;33;20479;-79
2023/06/02 12:39:04;;;;;;;5.72;1.30;;;;;;;;;;4216420;34;20065;-83
2023/06/02 12:41:31;;;;;;;11.75;1.50;;;;;;;;;;4212379;34;20047;-83
2023/06/02 12:43:58;;;;;;;2.53;1.37;;;;;;;;;;4213354;33;20043;-80
2023/06/02 12:46:26;;;;;;;6.37;1.48;;;;;;;;;;4237209;33;20043;-80
2023/06/02 12:48:53;;;;;;;1.52;1.40;;;;;;;;;;4236319;33;20058;-79
2023/06/02 12:51:20;;;;;;;5.28;1.90;;;;;;;;;;4240968;33;20081;-79
2023/06/02 12:53:46;;;;;;;4.60;1.65;;;;;;;;;;4247000;33;20046;-78
2023/06/02 12:56:18;;;;;;;4.20;1.10;;;;;;;;;;4241654;33;20094;-79
2023/06/02 12:58:45;;;;;;;9.18;1.50;;;;;;;;;;4238795;33;20034;-77
2023/06/02 13:01:11;;;;;;;8.20;2.87;;;;;;;;;;4238335;33;20041;-79
2023/06/02 13:03:37;;;;;;;2.42;1.35;;;;;;;;;;4225771;34;20063;-83
2023/06/02 13:06:05;;;;;;;3.90;1.17;;;;;;;;;;4225767;34;20039;-80
2023/06/02 13:08:31;;;;;;;1.33;1.00;;;;;;;;;;4212209;34;20055;-79
2023/06/02 13:10:57;;;;;;;6.93;1.83;;;;;;;;;;4207705;34;20298;-75
2023/06/02 13:13:24;;;;;;;3.33;1.52;;;;;;;;;;4209029;34;20069;-81
2023/06/02 13:15:50;;;;;;;5.28;1.30;;;;;;;;;;4196344;34;20543;-79
2023/06/02 13:18:17;;;;;;;5.97;2.20;;;;;;;;;;4197878;34;20139;-80
2023/06/02 13:20:43;;;;;;;5.05;1.48;;;;;;;;;;4186323;34;20460;-80
2023/06/02 13:23:10;;;;;;;14.63;1.70;;;;;;;;;;4182759;34;20048;-76
2023/06/02 13:25:36;;;;;;;4.97;1.35;;;;;;;;;;4183475;34;20077;-80
2023/06/02 13:28:02;;;;;;;4.68;1.40;;;;;;;;;;4183614;34;20047;-81
2023/06/02 13:30:29;;;;;;;1.52;1.35;;;;;;;;;;4190699;34;20079;-80
2023/06/02 13:32:55;;;;;;;8.02;1.92;;;;;;;;;;4171279;34;20081;-80
2023/06/02 13:35:22;;;;;;;6.05;1.23;;;;;;;;;;4203264;34;20043;-77
2023/06/02 13:37:48;;;;;;;1.25;1.15;;;;;;;;;;4212721;34;20091;-80
2023/06/02 13:40:14;;;;;;;8.38;1.40;;;;;;;;;;4216343;34;20051;-80
2023/06/02 13:42:41;;;;;;;4.00;2.37;;;;;;;;;;4210280;34;20046;-80
2023/06/02 13:45:07;;;;;;;4.10;1.50;;;;;;;;;;4209913;34;20134;-81
2023/06/02 13:47:33;;;;;;;2.37;1.55;;;;;;;;;;4220527;33;20069;-78
2023/06/02 13:49:59;;;;;;;6.35;1.42;;;;;;;;;;4214694;34;20979;-79
2023/06/02 13:52:26;;;;;;;4.05;1.23;;;;;;;;;;4216926;34;20055;-79
2023/06/02 13:54:54;;;;;;;3.37;1.40;;;;;;;;;;4216813;34;20055;-82
2023/06/02 13:57:21;;;;;;;4.65;2.15;;;;;;;;;;4216029;34;20056;-80
2023/06/02 13:59:47;;;;;;;4.62;1.62;;;;;;;;;;4192464;34;20520;-80
2023/06/02 14:02:13;;;;;;;9.52;4.05;;;;;;;;;;4191948;34;20899;-80
2023/06/02 14:04:41;;;;;;;3.00;0.80;;;;;;;;;;4202761;34;20127;-80
2023/06/02 14:07:08;;;;;;;1.85;1.23;;;;;;;;;;4200679;34;20187;-81
2023/06/02 14:09:34;;;;;;;1.00;1.00;;;;;;;;;;4189738;34;20040;-78
2023/06/02 14:12:01;;;;;;;5.37;1.25;;;;;;;;;;4194080;34;20123;-78
2023/06/02 14:14:27;;;;;;;2.35;1.20;;;;;;;;;;4196033;34;20069;-78
2023/06/02 14:16:53;;;;;;;3.67;2.00;;;;;;;;;;4193863;34;20040;-78
2023/06/02 14:19:19;;;;;;;2.78;1.15;;;;;;;;;;4196602;34;20039;-79
2023/06/02 14:21:45;;;;;;;2.87;2.30;;;;;;;;;;4195635;34;20085;-79
2023/06/02 14:24:11;;;;;;;2.83;1.45;;;;;;;;;;4194382;34;20051;-78
2023/06/02 14:26:38;;;;;;;5.47;1.40;;;;;;;;;;4196975;34;20043;-80
2023/06/02 14:29:04;;;;;;;1.30;1.20;;;;;;;;;;4195929;34;20036;-78
2023/06/02 14:31:30;;;;;;;9.95;1.25;;;;;;;;;;4196156;34;20069;-78
2023/06/02 14:33:56;;;;;;;2.62;1.42;;;;;;;;;;4218897;34;20064;-76
2023/06/02 14:36:22;;;;;;;2.42;1.40;;;;;;;;;;4225160;33;20054;-79
2023/06/02 14:38:48;;;;;;;1.87;1.00;;;;;;;;;;4226365;33;20068;-78
2023/06/02 14:41:15;;;;;;;3.15;0.93;;;;;;;;;;4226725;34;20047;-79
2023/06/02 14:43:41;;;;;;;1.83;1.30;;;;;;;;;;4226566;34;20042;-79
2023/06/02 14:46:07;;;;;;;3.62;1.45;;;;;;;;;;4225890;34;20062;-79
2023/06/02 14:48:34;;;;;;;2.53;1.30;;;;;;;;;;4225933;34;20047;-79
2023/06/02 14:51:00;;;;;;;1.10;1.10;;;;;;;;;;4226273;33;20081;-79
2023/06/02 14:53:26;;;;;;;1.75;1.25;;;;;;;;;;4229927;33;20062;-80
2023/06/02 14:55:54;;;;;;;4.68;0.88;;;;;;;;;;4240559;33;20051;-78
2023/06/02 14:58:20;;;;;;;1.25;0.75;;;;;;;;;;4240094;33;20325;-75
2023/06/02 15:00:46;;;;;;;1.02;1.00;;;;;;;;;;4238928;33;20411;-76
2023/06/02 15:03:12;;;;;;;2.42;1.10;;;;;;;;;;4254401;33;20053;-79
2023/06/02 15:05:39;;;;;;;1.75;0.95;;;;;;;;;;4225060;33;20089;-80
2023/06/02 15:08:05;;;;;;;2.95;1.52;;;;;;;;;;4223712;33;20558;-78
2023/06/02 15:10:31;;;;;;;2.90;1.27;;;;;;;;;;4221895;33;20046;-78
2023/06/02 15:12:57;;;;;;;2.17;1.17;;;;;;;;;;4223646;33;20925;-78
2023/06/02 15:15:24;;;;;;;1.17;1.08;;;;;;;;;;4224164;34;20069;-78
2023/06/02 15:17:50;;;;;;;2.90;0.98;;;;;;;;;;4224238;33;20354;-79
2023/06/02 15:20:16;;;;;;;2.78;0.77;;;;;;;;;;4222013;33;20428;-78
2023/06/02 15:22:44;;;;;;;1.50;0.93;;;;;;;;;;4220873;34;20065;-79
2023/06/02 15:25:11;;;;;;;2.60;0.80;;;;;;;;;;4196098;34;20118;-79
2023/06/02 15:27:39;;;;;;;1.40;1.10;;;;;;;;;;4209828;34;20051;-80
2023/06/02 15:30:06;;;;;;;1.12;0.90;;;;;;;;;;4209795;34;20058;-79
2023/06/02 15:32:32;;;;;;;0.90;0.90;;;;;;;;;;4208962;34;20051;-78
2023/06/02 15:34:59;;;;;;;1.60;0.70;;;;;;;;;;4210211;34;20106;-79
2023/06/02 15:37:25;;;;;;;3.62;0.93;;;;;;;;;;4220079;33;20414;-80
2023/06/02 15:39:51;;;;;;;2.05;1.17;;;;;;;;;;4223448;33;20053;-80
2023/06/02 15:42:17;;;;;;;6.05;1.62;;;;;;;;;;4221910;33;20068;-80
2023/06/02 15:44:44;;;;;;;3.83;1.30;;;;;;;;;;4223150;33;20084;-79
2023/06/02 15:47:10;;;;;;;2.58;1.00;;;;;;;;;;4222141;33;20076;-80
2023/06/02 15:49:36;;;;;;;0.82;0.82;;;;;;;;;;4222387;33;20042;-81
2023/06/02 15:52:02;;;;;;;1.65;0.85;;;;;;;;;;4211462;34;20188;-80
2023/06/02 15:54:29;;;;;;;1.65;0.88;;;;;;;;;;4209852;34;20094;-79
2023/06/02 15:56:55;;;;;;;0.85;0.85;;;;;;;;;;4219133;34;20065;-77
2023/06/02 15:59:22;;;;;;;1.70;0.82;;;;;;;;;;4223687;33;20096;-80
2023/06/02 16:01:48;;;;;;;1.35;0.98;;;;;;;;;;4223307;34;20047;-80
2023/06/02 16:04:15;;;;;;;0.95;0.95;;;;;;;;;;4223751;34;20100;-79
2023/06/02 16:06:41;;;;;;;2.28;0.77;;;;;;;;;;4222475;34;20523;-79
2023/06/02 16:09:08;;;;;;;3.00;0.93;;;;;;;;;;4220039;34;20053;-78
2023/06/02 16:11:34;;;;;;;0.75;0.75;;;;;;;;;;4222817;33;20357;-79
2023/06/02 16:14:01;;;;;;;1.17;1.10;;;;;;;;;;4223125;33;20590;-78
2023/06/02 16:16:27;;;;;;;4.18;1.25;;;;;;;;;;4223302;33;20039;-78
2023/06/02 16:18:53;;;;;;;2.55;1.00;;;;;;;;;;4222846;34;20047;-83
2023/06/02 16:21:19;;;;;;;13.82;4.72;;;;;;;;;;4219798;34;20062;-83
2023/06/02 16:23:46;;;;;;;1.25;1.05;;;;;;;;;;4222661;33;20063;-86
2023/06/02 16:26:13;;;;;;;7.35;1.25;;;;;;;;;;4226629;33;20210;-81
2023/06/02 16:28:42;;;;;;;0.93;0.93;;;;;;;;;;4236933;33;20081;-84
2023/06/02 16:31:08;;;;;;;1.98;1.08;;;;;;;;;;4220208;33;20038;-75
2023/06/02 16:33:36;;;;;;;0.95;0.95;;;;;;;;;;4230368;33;20066;-82
2023/06/02 16:36:05;;;;;;;1.20;1.10;;;;;;;;;;4221569;33;20083;-77
2023/06/02 16:38:31;;;;;;;2.25;1.30;;;;;;;;;;4221083;33;20120;-84
2023/06/02 16:40:57;;;;;;;1.45;1.00;;;;;;;;;;4195713;34;20139;-84
2023/06/02 16:43:23;;;;;;;2.58;0.70;;;;;;;;;;4210240;34;20038;-82
2023/06/02 16:45:51;;;;;;;1.92;1.10;;;;;;;;;;4208503;34;20106;-79
2023/06/02 16:48:17;;;;;;;4.37;1.05;;;;;;;;;;4208986;34;20047;-77
2023/06/02 16:50:43;;;;;;;3.85;1.00;;;;;;;;;;4208544;34;20243;-79